sensor_id;sensor_type;location;lat;lon;timestamp;temperature;humidity
76537;DHT22;65381;51.254;15.592;2023-09-19T00:00:48;17.50;80.70
76537;DHT22;65381;51.254;15.592;2023-09-19T00:03:36;17.50;80.90
76537;DHT22;65381;51.254;15.592;2023-09-19T00:06:23;17.50;81.20
76537;DHT22;65381;51.254;15.592;2023-09-19T00:08:54;17.50;81.30
76537;DHT22;65381;51.254;15.592;2023-09-19T00:11:22;17.50;81.30
76537;DHT22;65381;51.254;15.592;2023-09-19T00:13:53;17.50;81.40
76537;DHT22;65381;51.254;15.592;2023-09-19T00:16:23;17.50;81.50
76537;DHT22;65381;51.254;15.592;2023-09-19T00:18:51;17.40;81.50
76537;DHT22;65381;51.254;15.592;2023-09-19T00:21:20;17.40;81.50
76537;DHT22;65381;51.254;15.592;2023-09-19T00:23:48;17.40;81.30
76537;DHT22;65381;51.254;15.592;2023-09-19T00:26:16;17.40;81.10
76537;DHT22;65381;51.254;15.592;2023-09-19T00:28:48;17.30;81.00
76537;DHT22;65381;51.254;15.592;2023-09-19T00:31:19;17.30;80.90
76537;DHT22;65381;51.254;15.592;2023-09-19T00:33:48;17.20;81.30
76537;DHT22;65381;51.254;15.592;2023-09-19T00:36:16;17.20;80.70
76537;DHT22;65381;51.254;15.592;2023-09-19T00:38:44;17.20;80.70
76537;DHT22;65381;51.254;15.592;2023-09-19T00:41:13;17.20;80.70
76537;DHT22;65381;51.254;15.592;2023-09-19T00:43:41;17.20;80.60
76537;DHT22;65381;51.254;15.592;2023-09-19T00:46:10;17.10;80.60
76537;DHT22;65381;51.254;15.592;2023-09-19T00:48:42;17.10;80.80
76537;DHT22;65381;51.254;15.592;2023-09-19T00:51:14;17.10;80.60
76537;DHT22;65381;51.254;15.592;2023-09-19T00:53:45;17.10;80.60
76537;DHT22;65381;51.254;15.592;2023-09-19T00:56:15;17.00;80.70
76537;DHT22;65381;51.254;15.592;2023-09-19T00:58:47;17.00;80.50
76537;DHT22;65381;51.254;15.592;2023-09-19T01:01:16;17.00;80.50
76537;DHT22;65381;51.254;15.592;2023-09-19T01:03:45;17.00;80.50
76537;DHT22;65381;51.254;15.592;2023-09-19T01:06:13;17.00;80.50
76537;DHT22;65381;51.254;15.592;2023-09-19T01:08:41;17.00;80.50
76537;DHT22;65381;51.254;15.592;2023-09-19T01:11:11;17.00;80.50
76537;DHT22;65381;51.254;15.592;2023-09-19T01:13:52;17.00;80.50
76537;DHT22;65381;51.254;15.592;2023-09-19T01:24:49;16.80;80.30
76537;DHT22;65381;51.254;15.592;2023-09-19T01:30:26;16.70;80.40
76537;DHT22;65381;51.254;15.592;2023-09-19T01:32:57;16.70;80.50
76537;DHT22;65381;51.254;15.592;2023-09-19T01:35:25;16.60;80.50
76537;DHT22;65381;51.254;15.592;2023-09-19T01:37:53;16.60;80.40
76537;DHT22;65381;51.254;15.592;2023-09-19T01:40:26;16.60;80.50
76537;DHT22;65381;51.254;15.592;2023-09-19T01:43:09;16.60;80.50
76537;DHT22;65381;51.254;15.592;2023-09-19T01:48:30;16.60;80.40
76537;DHT22;65381;51.254;15.592;2023-09-19T01:51:06;16.60;80.50
76537;DHT22;65381;51.254;15.592;2023-09-19T01:53:55;16.60;80.50
76537;DHT22;65381;51.254;15.592;2023-09-19T01:56:42;16.60;80.70
76537;DHT22;65381;51.254;15.592;2023-09-19T02:01:31;16.50;80.90
76537;DHT22;65381;51.254;15.592;2023-09-19T02:04:00;16.60;80.50
76537;DHT22;65381;51.254;15.592;2023-09-19T02:06:28;16.50;80.50
76537;DHT22;65381;51.254;15.592;2023-09-19T02:08:56;16.50;80.50
76537;DHT22;65381;51.254;15.592;2023-09-19T02:11:25;16.50;80.50
76537;DHT22;65381;51.254;15.592;2023-09-19T02:13:55;16.40;80.70
76537;DHT22;65381;51.254;15.592;2023-09-19T02:16:23;16.50;80.70
76537;DHT22;65381;51.254;15.592;2023-09-19T02:18:54;16.40;80.70
76537;DHT22;65381;51.254;15.592;2023-09-19T02:21:23;16.40;80.60
76537;DHT22;65381;51.254;15.592;2023-09-19T02:23:51;16.40;80.60
76537;DHT22;65381;51.254;15.592;2023-09-19T02:26:19;16.40;80.60
76537;DHT22;65381;51.254;15.592;2023-09-19T02:28:47;16.40;80.70
76537;DHT22;65381;51.254;15.592;2023-09-19T02:31:16;16.40;80.60
76537;DHT22;65381;51.254;15.592;2023-09-19T02:33:45;16.40;80.70
76537;DHT22;65381;51.254;15.592;2023-09-19T02:36:14;16.40;80.70
76537;DHT22;65381;51.254;15.592;2023-09-19T02:38:46;16.40;80.60
76537;DHT22;65381;51.254;15.592;2023-09-19T02:41:15;16.40;80.60
76537;DHT22;65381;51.254;15.592;2023-09-19T02:43:43;16.40;80.70
76537;DHT22;65381;51.254;15.592;2023-09-19T02:46:11;16.30;80.80
76537;DHT22;65381;51.254;15.592;2023-09-19T02:48:41;16.30;80.70
76537;DHT22;65381;51.254;15.592;2023-09-19T02:51:09;16.30;80.70
76537;DHT22;65381;51.254;15.592;2023-09-19T02:53:37;16.30;80.70
76537;DHT22;65381;51.254;15.592;2023-09-19T02:56:05;16.20;80.70
76537;DHT22;65381;51.254;15.592;2023-09-19T02:58:34;16.20;80.60
76537;DHT22;65381;51.254;15.592;2023-09-19T03:01:12;16.20;80.70
76537;DHT22;65381;51.254;15.592;2023-09-19T03:05:52;24.00;50.00
76537;DHT22;65381;51.254;15.592;2023-09-19T03:08:22;16.10;80.60
76537;DHT22;65381;51.254;15.592;2023-09-19T03:10:51;16.10;80.60
76537;DHT22;65381;51.254;15.592;2023-09-19T03:13:19;16.10;80.70
76537;DHT22;65381;51.254;15.592;2023-09-19T03:15:47;16.00;80.70
76537;DHT22;65381;51.254;15.592;2023-09-19T03:18:27;16.00;80.80
76537;DHT22;65381;51.254;15.592;2023-09-19T03:20:56;16.00;80.70
76537;DHT22;65381;51.254;15.592;2023-09-19T03:23:24;16.00;80.70
76537;DHT22;65381;51.254;15.592;2023-09-19T03:25:54;16.00;80.80
76537;DHT22;65381;51.254;15.592;2023-09-19T03:28:25;16.00;80.80
76537;DHT22;65381;51.254;15.592;2023-09-19T03:30:59;16.00;80.90
76537;DHT22;65381;51.254;15.592;2023-09-19T03:33:29;16.00;81.20
76537;DHT22;65381;51.254;15.592;2023-09-19T03:36:02;16.10;80.80
76537;DHT22;65381;51.254;15.592;2023-09-19T03:38:33;16.00;80.70
76537;DHT22;65381;51.254;15.592;2023-09-19T03:41:02;16.10;80.70
76537;DHT22;65381;51.254;15.592;2023-09-19T03:43:34;16.10;80.70
76537;DHT22;65381;51.254;15.592;2023-09-19T03:46:03;16.10;80.70
76537;DHT22;65381;51.254;15.592;2023-09-19T03:48:35;16.00;80.70
76537;DHT22;65381;51.254;15.592;2023-09-19T03:51:03;16.00;80.70
76537;DHT22;65381;51.254;15.592;2023-09-19T03:53:31;16.00;80.70
76537;DHT22;65381;51.254;15.592;2023-09-19T03:55:59;16.00;80.60
76537;DHT22;65381;51.254;15.592;2023-09-19T03:58:30;16.00;80.60
76537;DHT22;65381;51.254;15.592;2023-09-19T04:00:58;16.00;80.70
76537;DHT22;65381;51.254;15.592;2023-09-19T04:03:28;16.00;80.70
76537;DHT22;65381;51.254;15.592;2023-09-19T04:06:03;16.00;80.70
76537;DHT22;65381;51.254;15.592;2023-09-19T04:08:31;16.00;80.70
76537;DHT22;65381;51.254;15.592;2023-09-19T04:10:59;16.00;80.70
76537;DHT22;65381;51.254;15.592;2023-09-19T04:13:27;16.00;80.90
76537;DHT22;65381;51.254;15.592;2023-09-19T04:15:55;16.00;80.90
76537;DHT22;65381;51.254;15.592;2023-09-19T04:18:26;16.00;80.90
76537;DHT22;65381;51.254;15.592;2023-09-19T04:20:54;16.00;81.00
76537;DHT22;65381;51.254;15.592;2023-09-19T04:23:25;16.00;81.00
76537;DHT22;65381;51.254;15.592;2023-09-19T04:25:53;16.00;80.90
76537;DHT22;65381;51.254;15.592;2023-09-19T04:28:21;16.00;81.10
76537;DHT22;65381;51.254;15.592;2023-09-19T04:30:50;16.00;81.40
76537;DHT22;65381;51.254;15.592;2023-09-19T04:33:18;16.00;81.30
76537;DHT22;65381;51.254;15.592;2023-09-19T04:35:49;16.00;81.30
76537;DHT22;65381;51.254;15.592;2023-09-19T04:38:19;16.10;81.20
76537;DHT22;65381;51.254;15.592;2023-09-19T04:40:48;16.10;81.30
76537;DHT22;65381;51.254;15.592;2023-09-19T04:43:16;16.10;81.50
76537;DHT22;65381;51.254;15.592;2023-09-19T04:45:44;16.20;81.40
76537;DHT22;65381;51.254;15.592;2023-09-19T04:48:15;16.20;81.40
76537;DHT22;65381;51.254;15.592;2023-09-19T04:50:43;16.30;81.30
76537;DHT22;65381;51.254;15.592;2023-09-19T04:53:12;16.30;81.40
76537;DHT22;65381;51.254;15.592;2023-09-19T04:55:40;16.40;81.50
76537;DHT22;65381;51.254;15.592;2023-09-19T04:58:08;16.40;81.40
76537;DHT22;65381;51.254;15.592;2023-09-19T05:00:36;16.40;81.10
76537;DHT22;65381;51.254;15.592;2023-09-19T05:03:04;16.40;80.80
76537;DHT22;65381;51.254;15.592;2023-09-19T05:05:36;16.50;80.70
76537;DHT22;65381;51.254;15.592;2023-09-19T05:08:06;16.50;80.70
76537;DHT22;65381;51.254;15.592;2023-09-19T05:10:36;16.50;80.70
76537;DHT22;65381;51.254;15.592;2023-09-19T05:13:08;16.50;80.60
76537;DHT22;65381;51.254;15.592;2023-09-19T05:15:35;16.60;80.50
76537;DHT22;65381;51.254;15.592;2023-09-19T05:18:04;16.60;80.50
76537;DHT22;65381;51.254;15.592;2023-09-19T05:20:34;16.60;80.50
76537;DHT22;65381;51.254;15.592;2023-09-19T05:23:05;16.70;80.50
76537;DHT22;65381;51.254;15.592;2023-09-19T05:25:40;16.70;80.50
76537;DHT22;65381;51.254;15.592;2023-09-19T05:28:10;16.70;80.50
76537;DHT22;65381;51.254;15.592;2023-09-19T05:30:42;16.80;80.50
76537;DHT22;65381;51.254;15.592;2023-09-19T05:33:15;16.80;80.40
76537;DHT22;65381;51.254;15.592;2023-09-19T05:35:48;16.90;80.50
76537;DHT22;65381;51.254;15.592;2023-09-19T05:38:21;16.90;80.50
76537;DHT22;65381;51.254;15.592;2023-09-19T05:40:50;16.90;80.50
76537;DHT22;65381;51.254;15.592;2023-09-19T05:43:18;17.00;80.40
76537;DHT22;65381;51.254;15.592;2023-09-19T05:45:46;17.00;80.50
76537;DHT22;65381;51.254;15.592;2023-09-19T05:48:15;17.00;80.40
76537;DHT22;65381;51.254;15.592;2023-09-19T05:50:44;17.10;80.40
76537;DHT22;65381;51.254;15.592;2023-09-19T05:53:17;17.20;80.30
76537;DHT22;65381;51.254;15.592;2023-09-19T05:55:46;17.20;80.30
76537;DHT22;65381;51.254;15.592;2023-09-19T05:58:14;17.20;80.30
76537;DHT22;65381;51.254;15.592;2023-09-19T06:00:45;17.30;80.30
76537;DHT22;65381;51.254;15.592;2023-09-19T06:03:15;17.40;80.60
76537;DHT22;65381;51.254;15.592;2023-09-19T06:05:45;17.50;80.30
76537;DHT22;65381;51.254;15.592;2023-09-19T06:08:14;17.50;80.40
76537;DHT22;65381;51.254;15.592;2023-09-19T06:10:42;17.60;80.30
76537;DHT22;65381;51.254;15.592;2023-09-19T06:13:11;17.80;80.20
76537;DHT22;65381;51.254;15.592;2023-09-19T06:15:39;17.80;80.10
76537;DHT22;65381;51.254;15.592;2023-09-19T06:18:11;18.00;79.90
76537;DHT22;65381;51.254;15.592;2023-09-19T06:20:43;18.00;79.70
76537;DHT22;65381;51.254;15.592;2023-09-19T06:23:13;18.00;79.50
76537;DHT22;65381;51.254;15.592;2023-09-19T06:25:41;17.90;79.30
76537;DHT22;65381;51.254;15.592;2023-09-19T06:28:12;17.80;79.30
76537;DHT22;65381;51.254;15.592;2023-09-19T06:30:40;17.80;79.20
76537;DHT22;65381;51.254;15.592;2023-09-19T06:33:08;17.80;79.20
76537;DHT22;65381;51.254;15.592;2023-09-19T06:35:43;17.70;79.20
76537;DHT22;65381;51.254;15.592;2023-09-19T06:38:15;17.70;79.30
76537;DHT22;65381;51.254;15.592;2023-09-19T06:40:43;17.60;79.20
76537;DHT22;65381;51.254;15.592;2023-09-19T06:43:12;17.60;79.30
76537;DHT22;65381;51.254;15.592;2023-09-19T06:45:40;17.60;79.20
76537;DHT22;65381;51.254;15.592;2023-09-19T06:48:08;17.60;79.10
76537;DHT22;65381;51.254;15.592;2023-09-19T06:50:38;17.60;79.10
76537;DHT22;65381;51.254;15.592;2023-09-19T06:53:07;17.70;79.00
76537;DHT22;65381;51.254;15.592;2023-09-19T06:55:35;17.80;79.00
76537;DHT22;65381;51.254;15.592;2023-09-19T06:58:03;17.80;79.00
76537;DHT22;65381;51.254;15.592;2023-09-19T07:00:35;17.80;78.90
76537;DHT22;65381;51.254;15.592;2023-09-19T07:03:08;17.80;78.70
76537;DHT22;65381;51.254;15.592;2023-09-19T07:05:40;17.80;78.60
76537;DHT22;65381;51.254;15.592;2023-09-19T07:08:10;17.80;78.60
76537;DHT22;65381;51.254;15.592;2023-09-19T07:10:42;17.80;78.50
76537;DHT22;65381;51.254;15.592;2023-09-19T07:13:17;17.80;78.50
76537;DHT22;65381;51.254;15.592;2023-09-19T07:15:45;17.90;78.50
76537;DHT22;65381;51.254;15.592;2023-09-19T07:18:20;18.00;78.50
76537;DHT22;65381;51.254;15.592;2023-09-19T07:20:48;18.00;78.50
76537;DHT22;65381;51.254;15.592;2023-09-19T07:23:21;18.20;78.30
76537;DHT22;65381;51.254;15.592;2023-09-19T07:25:52;18.30;78.20
76537;DHT22;65381;51.254;15.592;2023-09-19T07:28:20;18.40;78.10
76537;DHT22;65381;51.254;15.592;2023-09-19T07:30:48;18.50;78.00
76537;DHT22;65381;51.254;15.592;2023-09-19T07:33:16;18.60;78.00
76537;DHT22;65381;51.254;15.592;2023-09-19T07:35:47;18.80;77.70
76537;DHT22;65381;51.254;15.592;2023-09-19T07:38:16;18.80;77.50
76537;DHT22;65381;51.254;15.592;2023-09-19T07:40:45;18.90;77.30
76537;DHT22;65381;51.254;15.592;2023-09-19T07:43:13;18.90;77.40
76537;DHT22;65381;51.254;15.592;2023-09-19T07:45:41;19.00;77.40
76537;DHT22;65381;51.254;15.592;2023-09-19T07:48:10;19.20;77.50
76537;DHT22;65381;51.254;15.592;2023-09-19T07:50:42;19.30;77.30
76537;DHT22;65381;51.254;15.592;2023-09-19T07:53:13;19.50;77.30
76537;DHT22;65381;51.254;15.592;2023-09-19T07:55:43;19.70;77.20
76537;DHT22;65381;51.254;15.592;2023-09-19T07:58:12;19.80;76.80
76537;DHT22;65381;51.254;15.592;2023-09-19T08:00:41;19.90;76.50
76537;DHT22;65381;51.254;15.592;2023-09-19T08:03:09;19.90;76.10
76537;DHT22;65381;51.254;15.592;2023-09-19T08:05:45;19.90;76.10
76537;DHT22;65381;51.254;15.592;2023-09-19T08:08:14;20.00;76.30
76537;DHT22;65381;51.254;15.592;2023-09-19T08:10:43;20.10;76.20
76537;DHT22;65381;51.254;15.592;2023-09-19T08:13:11;20.20;75.60
76537;DHT22;65381;51.254;15.592;2023-09-19T08:15:45;20.40;76.00
76537;DHT22;65381;51.254;15.592;2023-09-19T08:18:15;20.50;75.70
76537;DHT22;65381;51.254;15.592;2023-09-19T08:20:43;20.60;75.10
76537;DHT22;65381;51.254;15.592;2023-09-19T08:23:16;20.60;75.10
76537;DHT22;65381;51.254;15.592;2023-09-19T08:25:48;20.90;75.20
76537;DHT22;65381;51.254;15.592;2023-09-19T08:28:16;21.10;74.90
76537;DHT22;65381;51.254;15.592;2023-09-19T08:30:52;21.30;73.30
76537;DHT22;65381;51.254;15.592;2023-09-19T08:33:20;21.10;73.10
76537;DHT22;65381;51.254;15.592;2023-09-19T08:35:48;21.00;72.60
76537;DHT22;65381;51.254;15.592;2023-09-19T08:38:16;20.90;73.00
76537;DHT22;65381;51.254;15.592;2023-09-19T08:40:46;21.00;73.60
76537;DHT22;65381;51.254;15.592;2023-09-19T08:43:15;21.40;73.60
76537;DHT22;65381;51.254;15.592;2023-09-19T08:45:42;21.60;72.20
76537;DHT22;65381;51.254;15.592;2023-09-19T08:48:23;21.50;71.40
76537;DHT22;65381;51.254;15.592;2023-09-19T08:51:12;21.50;70.30
76537;DHT22;65381;51.254;15.592;2023-09-19T08:54:08;21.70;70.80
76537;DHT22;65381;51.254;15.592;2023-09-19T08:56:56;21.90;69.50
76537;DHT22;65381;51.254;15.592;2023-09-19T08:59:30;22.50;71.10
76537;DHT22;65381;51.254;15.592;2023-09-19T09:01:59;23.10;70.20
76537;DHT22;65381;51.254;15.592;2023-09-19T09:04:27;23.60;69.70
76537;DHT22;65381;51.254;15.592;2023-09-19T09:06:57;24.20;69.40
76537;DHT22;65381;51.254;15.592;2023-09-19T09:09:26;24.80;68.40
76537;DHT22;65381;51.254;15.592;2023-09-19T09:11:57;25.30;67.60
76537;DHT22;65381;51.254;15.592;2023-09-19T09:14:26;25.80;67.40
76537;DHT22;65381;51.254;15.592;2023-09-19T09:16:55;26.20;66.70
76537;DHT22;65381;51.254;15.592;2023-09-19T09:19:35;26.30;66.10
76537;DHT22;65381;51.254;15.592;2023-09-19T09:22:11;26.20;65.20
76537;DHT22;65381;51.254;15.592;2023-09-19T09:24:58;25.70;65.00
76537;DHT22;65381;51.254;15.592;2023-09-19T09:27:30;25.00;65.40
76537;DHT22;65381;51.254;15.592;2023-09-19T09:30:02;24.70;66.40
76537;DHT22;65381;51.254;15.592;2023-09-19T09:32:32;25.30;66.60
76537;DHT22;65381;51.254;15.592;2023-09-19T09:35:07;26.20;66.00
76537;DHT22;65381;51.254;15.592;2023-09-19T09:37:45;27.00;63.90
76537;DHT22;65381;51.254;15.592;2023-09-19T09:40:15;27.90;63.90
76537;DHT22;65381;51.254;15.592;2023-09-19T09:42:44;28.50;62.70
76537;DHT22;65381;51.254;15.592;2023-09-19T09:47:49;29.70;60.70
76537;DHT22;65381;51.254;15.592;2023-09-19T09:50:32;29.80;60.40
76537;DHT22;65381;51.254;15.592;2023-09-19T09:53:23;30.10;59.50
76537;DHT22;65381;51.254;15.592;2023-09-19T09:55:59;30.60;56.30
76537;DHT22;65381;51.254;15.592;2023-09-19T09:58:27;30.50;56.50
76537;DHT22;65381;51.254;15.592;2023-09-19T10:01:05;29.70;55.50
76537;DHT22;65381;51.254;15.592;2023-09-19T10:03:39;28.50;56.00
76537;DHT22;65381;51.254;15.592;2023-09-19T10:06:11;27.20;56.20
76537;DHT22;65381;51.254;15.592;2023-09-19T10:09:09;26.10;56.70
76537;DHT22;65381;51.254;15.592;2023-09-19T10:12:07;25.60;57.00
76537;DHT22;65381;51.254;15.592;2023-09-19T10:14:40;25.30;56.70
76537;DHT22;65381;51.254;15.592;2023-09-19T10:17:12;24.70;56.40
76537;DHT22;65381;51.254;15.592;2023-09-19T10:19:56;24.20;56.60
76537;DHT22;65381;51.254;15.592;2023-09-19T10:22:34;23.90;56.70
76537;DHT22;65381;51.254;15.592;2023-09-19T10:25:04;23.80;57.10
76537;DHT22;65381;51.254;15.592;2023-09-19T10:27:36;24.20;56.90
76537;DHT22;65381;51.254;15.592;2023-09-19T10:30:06;25.30;56.90
76537;DHT22;65381;51.254;15.592;2023-09-19T10:32:39;26.10;54.60
76537;DHT22;65381;51.254;15.592;2023-09-19T10:35:11;26.00;53.80
76537;DHT22;65381;51.254;15.592;2023-09-19T10:37:42;26.70;54.10
76537;DHT22;65381;51.254;15.592;2023-09-19T10:40:13;27.90;52.90
76537;DHT22;65381;51.254;15.592;2023-09-19T10:42:45;28.70;52.80
76537;DHT22;65381;51.254;15.592;2023-09-19T10:45:15;29.40;50.70
76537;DHT22;65381;51.254;15.592;2023-09-19T10:47:46;29.50;49.40
76537;DHT22;65381;51.254;15.592;2023-09-19T10:50:21;28.60;49.30
76537;DHT22;65381;51.254;15.592;2023-09-19T10:52:51;27.30;50.30
76537;DHT22;65381;51.254;15.592;2023-09-19T10:55:28;26.40;51.20
76537;DHT22;65381;51.254;15.592;2023-09-19T10:57:59;26.00;52.50
76537;DHT22;65381;51.254;15.592;2023-09-19T11:00:30;26.70;52.50
76537;DHT22;65381;51.254;15.592;2023-09-19T11:03:21;27.90;51.50
76537;DHT22;65381;51.254;15.592;2023-09-19T11:06:15;29.70;49.70
76537;DHT22;65381;51.254;15.592;2023-09-19T11:08:57;30.70;48.20
76537;DHT22;65381;51.254;15.592;2023-09-19T11:11:44;31.10;48.00
76537;DHT22;65381;51.254;15.592;2023-09-19T11:30:38;31.50;46.80
76537;DHT22;65381;51.254;15.592;2023-09-19T11:36:10;31.90;45.30
76537;DHT22;65381;51.254;15.592;2023-09-19T11:49:26;31.00;44.00
76537;DHT22;65381;51.254;15.592;2023-09-19T11:51:59;31.10;43.80
76537;DHT22;65381;51.254;15.592;2023-09-19T11:54:36;31.50;44.00
76537;DHT22;65381;51.254;15.592;2023-09-19T11:57:10;32.20;43.90
76537;DHT22;65381;51.254;15.592;2023-09-19T11:59:39;32.30;43.30
76537;DHT22;65381;51.254;15.592;2023-09-19T12:02:07;32.20;43.20
76537;DHT22;65381;51.254;15.592;2023-09-19T12:04:43;31.40;42.90
76537;DHT22;65381;51.254;15.592;2023-09-19T12:07:14;30.60;43.10
76537;DHT22;65381;51.254;15.592;2023-09-19T12:09:46;30.10;44.00
76537;DHT22;65381;51.254;15.592;2023-09-19T12:12:26;30.10;44.20
76537;DHT22;65381;51.254;15.592;2023-09-19T12:14:57;30.30;43.60
76537;DHT22;65381;51.254;15.592;2023-09-19T12:17:39;29.50;43.70
76537;DHT22;65381;51.254;15.592;2023-09-19T12:20:10;28.60;44.00
76537;DHT22;65381;51.254;15.592;2023-09-19T12:22:43;28.00;44.30
76537;DHT22;65381;51.254;15.592;2023-09-19T12:25:15;27.50;44.70
76537;DHT22;65381;51.254;15.592;2023-09-19T12:27:49;27.30;44.90
76537;DHT22;65381;51.254;15.592;2023-09-19T12:30:29;27.00;45.00
76537;DHT22;65381;51.254;15.592;2023-09-19T12:33:02;27.40;45.40
76537;DHT22;65381;51.254;15.592;2023-09-19T12:35:32;28.10;44.80
76537;DHT22;65381;51.254;15.592;2023-09-19T12:38:03;28.70;43.90
76537;DHT22;65381;51.254;15.592;2023-09-19T12:40:33;28.90;43.40
76537;DHT22;65381;51.254;15.592;2023-09-19T12:43:07;29.20;43.20
76537;DHT22;65381;51.254;15.592;2023-09-19T12:45:37;29.50;42.90
76537;DHT22;65381;51.254;15.592;2023-09-19T12:51:07;29.20;41.80
76537;DHT22;65381;51.254;15.592;2023-09-19T12:53:41;29.40;42.70
76537;DHT22;65381;51.254;15.592;2023-09-19T12:56:16;29.50;41.90
76537;DHT22;65381;51.254;15.592;2023-09-19T12:58:53;29.00;41.90
76537;DHT22;65381;51.254;15.592;2023-09-19T13:01:24;29.00;42.20
76537;DHT22;65381;51.254;15.592;2023-09-19T13:04:23;29.00;42.40
76537;DHT22;65381;51.254;15.592;2023-09-19T13:06:57;29.00;42.00
76537;DHT22;65381;51.254;15.592;2023-09-19T13:09:29;28.90;42.20
76537;DHT22;65381;51.254;15.592;2023-09-19T13:12:03;28.80;42.50
76537;DHT22;65381;51.254;15.592;2023-09-19T13:14:31;28.70;42.20
76537;DHT22;65381;51.254;15.592;2023-09-19T13:17:05;28.40;41.80
76537;DHT22;65381;51.254;15.592;2023-09-19T13:19:46;28.10;42.40
76537;DHT22;65381;51.254;15.592;2023-09-19T13:25:14;28.30;42.20
76537;DHT22;65381;51.254;15.592;2023-09-19T13:27:54;28.00;42.30
76537;DHT22;65381;51.254;15.592;2023-09-19T13:30:25;27.40;42.60
76537;DHT22;65381;51.254;15.592;2023-09-19T13:33:04;27.20;42.80
76537;DHT22;65381;51.254;15.592;2023-09-19T13:35:35;27.20;43.00
76537;DHT22;65381;51.254;15.592;2023-09-19T13:38:06;27.10;42.70
76537;DHT22;65381;51.254;15.592;2023-09-19T13:40:38;26.90;42.80
76537;DHT22;65381;51.254;15.592;2023-09-19T13:43:07;26.90;43.10
76537;DHT22;65381;51.254;15.592;2023-09-19T13:45:36;27.00;43.10
76537;DHT22;65381;51.254;15.592;2023-09-19T13:48:05;27.10;42.70
76537;DHT22;65381;51.254;15.592;2023-09-19T13:50:34;26.90;42.90
76537;DHT22;65381;51.254;15.592;2023-09-19T13:53:04;26.70;43.00
76537;DHT22;65381;51.254;15.592;2023-09-19T13:55:32;26.50;42.80
76537;DHT22;65381;51.254;15.592;2023-09-19T13:58:01;26.30;43.00
76537;DHT22;65381;51.254;15.592;2023-09-19T14:00:29;26.00;43.20
76537;DHT22;65381;51.254;15.592;2023-09-19T14:02:57;25.80;43.30
76537;DHT22;65381;51.254;15.592;2023-09-19T14:05:26;25.70;43.30
76537;DHT22;65381;51.254;15.592;2023-09-19T14:07:55;25.60;43.40
76537;DHT22;65381;51.254;15.592;2023-09-19T14:10:24;25.30;43.40
76537;DHT22;65381;51.254;15.592;2023-09-19T14:12:53;25.00;43.60
76537;DHT22;65381;51.254;15.592;2023-09-19T14:15:23;25.00;43.90
76537;DHT22;65381;51.254;15.592;2023-09-19T14:17:58;24.90;43.70
76537;DHT22;65381;51.254;15.592;2023-09-19T14:20:28;24.70;43.90
76537;DHT22;65381;51.254;15.592;2023-09-19T14:22:58;24.60;44.00
76537;DHT22;65381;51.254;15.592;2023-09-19T14:25:31;24.70;44.00
76537;DHT22;65381;51.254;15.592;2023-09-19T14:27:59;24.40;44.00
76537;DHT22;65381;51.254;15.592;2023-09-19T14:30:28;24.00;44.20
76537;DHT22;65381;51.254;15.592;2023-09-19T14:32:56;23.60;44.40
76537;DHT22;65381;51.254;15.592;2023-09-19T14:35:26;23.40;44.60
76537;DHT22;65381;51.254;15.592;2023-09-19T14:37:54;23.10;44.70
76537;DHT22;65381;51.254;15.592;2023-09-19T14:40:23;23.00;44.80
76537;DHT22;65381;51.254;15.592;2023-09-19T14:42:51;22.90;44.80
76537;DHT22;65381;51.254;15.592;2023-09-19T14:45:19;22.90;44.90
76537;DHT22;65381;51.254;15.592;2023-09-19T14:47:50;22.80;44.90
76537;DHT22;65381;51.254;15.592;2023-09-19T14:50:23;22.80;45.00
76537;DHT22;65381;51.254;15.592;2023-09-19T14:52:51;22.70;45.10
76537;DHT22;65381;51.254;15.592;2023-09-19T14:55:21;22.60;45.20
76537;DHT22;65381;51.254;15.592;2023-09-19T14:57:50;22.60;45.30
76537;DHT22;65381;51.254;15.592;2023-09-19T15:00:24;22.50;45.40
76537;DHT22;65381;51.254;15.592;2023-09-19T15:02:53;22.50;45.50
76537;DHT22;65381;51.254;15.592;2023-09-19T15:05:22;22.30;45.70
76537;DHT22;65381;51.254;15.592;2023-09-19T15:07:50;22.20;45.80
76537;DHT22;65381;51.254;15.592;2023-09-19T15:10:19;22.00;45.80
76537;DHT22;65381;51.254;15.592;2023-09-19T15:12:47;21.90;46.00
76537;DHT22;65381;51.254;15.592;2023-09-19T15:15:16;21.90;46.00
76537;DHT22;65381;51.254;15.592;2023-09-19T15:17:44;21.70;46.10
76537;DHT22;65381;51.254;15.592;2023-09-19T15:20:14;21.70;46.30
76537;DHT22;65381;51.254;15.592;2023-09-19T15:22:43;21.60;46.30
76537;DHT22;65381;51.254;15.592;2023-09-19T15:25:12;21.50;46.50
76537;DHT22;65381;51.254;15.592;2023-09-19T15:27:41;21.40;46.50
76537;DHT22;65381;51.254;15.592;2023-09-19T15:30:10;21.40;46.60
76537;DHT22;65381;51.254;15.592;2023-09-19T15:32:39;21.30;46.70
76537;DHT22;65381;51.254;15.592;2023-09-19T15:35:10;21.10;46.80
76537;DHT22;65381;51.254;15.592;2023-09-19T15:37:41;21.10;46.90
76537;DHT22;65381;51.254;15.592;2023-09-19T15:40:10;21.10;47.00
76537;DHT22;65381;51.254;15.592;2023-09-19T15:42:43;21.00;47.10
76537;DHT22;65381;51.254;15.592;2023-09-19T15:45:12;21.00;47.20
76537;DHT22;65381;51.254;15.592;2023-09-19T15:47:40;20.90;47.30
76537;DHT22;65381;51.254;15.592;2023-09-19T15:50:12;20.80;47.30
76537;DHT22;65381;51.254;15.592;2023-09-19T15:52:44;20.80;47.40
76537;DHT22;65381;51.254;15.592;2023-09-19T15:55:14;20.80;47.50
76537;DHT22;65381;51.254;15.592;2023-09-19T15:57:42;20.80;47.50
76537;DHT22;65381;51.254;15.592;2023-09-19T16:00:11;20.70;47.50
76537;DHT22;65381;51.254;15.592;2023-09-19T16:02:47;20.60;47.60
76537;DHT22;65381;51.254;15.592;2023-09-19T16:05:19;20.60;47.70
76537;DHT22;65381;51.254;15.592;2023-09-19T16:07:49;20.50;47.70
76537;DHT22;65381;51.254;15.592;2023-09-19T16:10:18;20.50;47.80
76537;DHT22;65381;51.254;15.592;2023-09-19T16:12:47;20.30;47.90
76537;DHT22;65381;51.254;15.592;2023-09-19T16:15:17;20.30;48.00
76537;DHT22;65381;51.254;15.592;2023-09-19T16:17:46;20.30;48.00
76537;DHT22;65381;51.254;15.592;2023-09-19T16:20:15;20.10;48.10
76537;DHT22;65381;51.254;15.592;2023-09-19T16:22:46;20.00;48.20
76537;DHT22;65381;51.254;15.592;2023-09-19T16:25:15;19.90;48.30
76537;DHT22;65381;51.254;15.592;2023-09-19T16:27:46;19.80;48.40
76537;DHT22;65381;51.254;15.592;2023-09-19T16:30:15;19.70;48.50
76537;DHT22;65381;51.254;15.592;2023-09-19T16:32:43;19.50;48.60
76537;DHT22;65381;51.254;15.592;2023-09-19T16:35:12;19.50;48.60
76537;DHT22;65381;51.254;15.592;2023-09-19T16:37:41;19.40;48.70